AirNav   Everest Fuels
 
 634 users online  

MA48 Raytheon Heliport
Lexington, Massachusetts, USA

GOING TO LEXINGTON?


FAA INFORMATION EFFECTIVE 10 SEPTEMBER 2020

Location

FAA Identifier: MA48
Lat/Long: 42-25-50.3430N 071-15-09.2030W
42-25.839050N 071-15.153383W
42.4306508,-71.2525564
(estimated)
Elevation: 130 ft. / 40 m (estimated)
Variation: 16W (1985)
Time zone: UTC -4 (UTC -5 during Standard Time)
Zip code: 02421

Heliport Operations

Heliport use: Private use. Permission required prior to landing
Activation date: 04/1964
Control tower: no
ARTCC: BOSTON CENTER
FSS: BRIDGEPORT FLIGHT SERVICE STATION
Attendance: UNATNDD
Wind indicator: yes
Segmented circle: no

Heliport Communications

WX ASOS at BED (2.9 nm NW): 124.6 (781-274-9733)
WX ASOS at BOS (12 nm E): PHONE 617-567-5762
WX ASOS at OWD (15 nm S): 119.95 (781-762-4314)
WX ASOS at BVY (17 nm NE): PHONE 978-921-5042
WX ASOS at LWM (18 nm N): PHONE 978-687-8017

Nearby radio navigation aids

VOR radial/distance  VOR name  Freq  Var
BOSr307/12.5BOSTON VOR/DME112.7016W
LWMr216/19.8LAWRENCE VOR/DME112.5015W
MHTr184/26.8MANCHESTER VOR/DME114.4015W
GDMr115/36.3GARDNER VOR/DME110.6014W
PUTr057/38.8PUTNAM VOR/DME117.4014W

Heliport Services

Airframe service: NONE
Powerplant service: NONE

Runway Information

Helipad H1

Dimensions: 55 x 40 ft. / 17 x 12 m
Surface: asphalt
Latitude: 42-25.839050N
Longitude: 071-15.153383W
Elevation: 130.0 ft.
Traffic pattern: leftleft
Obstructions: bldg
LOCATED EAST OF PAD.

Heliport Ownership and Management from official FAA records

Ownership: Privately-owned
Owner: RAYTHEON COMPANY
141 SPRING STREET
LEXINGTON, MA 02173
Phone 617-862-6600
Manager: ELIZABETH KRISTINSON
RAYTHEON CO, 141 SPRING ST
LEXINGTON, MA 02173
Phone 781-860-2556

Additional Remarks

FOR CD CTC BOSTON APCH AT 603-594-5554.

Instrument Procedures

There are no published instrument procedures at MA48.

Some nearby airports with instrument procedures:

KBED - Laurence G Hanscom Field Airport (3 nm NW)
KBOS - General Edward Lawrence Logan International Airport (12 nm E)
6B6 - Minute Man Air Field (12 nm W)
KOWD - Norwood Memorial Airport (15 nm S)
KBVY - Beverly Regional Airport (17 nm NE)
KLWM - Lawrence Municipal Airport (18 nm N)
 
Loc | Ops | Rwys | IFR | FBO | Links
Com | Nav | Svcs | Stats | Notes
Area around MA48 (Raytheon Heliport)
 
Road maps at: MapQuest Bing Google
 
Aerial photo
No photo
 
Sectional chart

 
Airport distance calculator
Flying to Raytheon Heliport? Find the distance to fly.

From to MA48

Sunrise and sunset
Times for 22-Sep-2020
 Local
(UTC-4)
 Zulu
(UTC)
Morning civil twilight06:0610:06
Sunrise06:3410:34
Sunset18:4022:40
Evening civil twilight19:0923:09

Current date and time
Zulu (UTC)  22-Sep-2020 04:57:32
Local (UTC-4)  22-Sep-2020 00:57:32
 
METAR
KBED 
3nm NW 
220451Z AUTO 00000KT 10SM CLR 02/M01 A3034 RMK AO2 SLP286 T00171006 401831011
KBOS 
11nm E 
220454Z 32007KT 10SM FEW250 09/01 A3033 RMK AO2 SLP271 T00890006 401610072
KMQE 
14nm SE 
220451Z AUTO 35010KT 07/M01 A3031 RMK AO1 SLP276 T00721006 401610050
KOWD 
15nm S 
220450Z AUTO 00000KT 1 1/2SM BR CLR 00/M02 A3034 RMK AO2 VIS 3/4V5 SLP272 T00001017 401781017
KBVY 
17nm NE 
220453Z AUTO 34006KT 10SM CLR 02/01 A3033 RMK AO2 SLPNO T00220006
KLWM 
18nm N 
220454Z AUTO 00000KT 10SM CLR 04/03 A3036 RMK AO2 SLP282 T00390028 401720017
TAF
KBED 
3nm NW 
211730Z 2118/2218 05012KT P6SM SKC FM212200 06006KT P6SM SKC FM220000 VRB03KT P6SM SKC FM221400 36013G23KT P6SM SCT250
KBOS 
11nm E 
212046Z 2121/2224 06012KT P6SM FEW050 FM212200 04008KT P6SM SKC FM220200 02006KT P6SM SKC FM221300 36013G23KT P6SM FEW250 FM221500 01020G30KT P6SM SCT250
NOTAMs
Click for the latest NOTAMs
NOTAMs are issued by the DoD/FAA and will open in a separate window not controlled by AirNav.

 

 
 

Would you like to see your business listed on this page?

 If your business provides an interesting product or service to pilots, flight crews, aircraft, or users of the Raytheon Heliport, you should consider listing it here.  To start the listing process, click on the button below
 
Add a business
 

Other Pages about Raytheon Heliport

Update a link
 
Copyright © AirNav, LLC. All rights reserved. Privacy Policy  Contact